Terminal Aerodrome Forecast
Issued by NWS Sterling, VA

Current Version | Previous Version | Graphics & Text | Print | Product List | Glossary On
Versions: 1 2 3 4 5 6 7 8 9 10 11 12 13 14 15 16 17 18 19 20 21 22 23
936
FTUS41 KLWX 122113 AAA
TAFIAD
TAF AMD
KIAD 122113Z 1221/1324 19007KT P6SM OVC050
     FM122300 19006KT 3SM -SHSN SCT010 BKN050
     FM130300 24004KT P6SM SCT040 BKN050
     FM130500 29008KT P6SM BKN050
     FM130800 30019G32KT P6SM SCT060 BKN090
     FM131000 31023G39KT P6SM SCT060 BKN140=

USA.gov is the U.S. government's official web portal to all federal, state and local government web resources and services.